Time;durP1;ratioP1;P1;durP2;ratioP2;P2;SDS_P1;SDS_P2;PMS_P1;PMS_P2;Temp;Humidity;BMP_temperature;BMP_pressure;BME280_temperature;BME280_humidity;BME280_pressure;Samples;Min_cycle;Max_cycle;Signal;HPM_P1;HPM_P2
2023/01/09 00:00:51;;;;;;;21.88;11.60;;;;;;;5.86;100.00;97704.06;5009386;28;20087;-77
2023/01/09 00:03:17;;;;;;;17.58;8.95;;;;;;;5.85;100.00;97691.66;5014395;28;20485;-76
2023/01/09 00:05:42;;;;;;;23.50;12.07;;;;;;;5.83;100.00;97678.47;5014316;28;20032;-77
2023/01/09 00:08:08;;;;;;;27.70;11.48;;;;;;;5.95;100.00;97672.69;5013999;28;20041;-76
2023/01/09 00:10:33;;;;;;;23.27;10.95;;;;;;;5.94;100.00;97667.41;5008931;28;20055;-75
2023/01/09 00:12:59;;;;;;;17.85;9.13;;;;;;;5.34;100.00;97660.13;4997279;28;20052;-76
2023/01/09 00:15:24;;;;;;;18.02;9.23;;;;;;;5.07;100.00;97642.66;5014140;28;20104;-77
2023/01/09 00:17:50;;;;;;;21.83;10.68;;;;;;;5.05;100.00;97655.09;5014202;28;20126;-77
2023/01/09 00:20:16;;;;;;;21.60;10.95;;;;;;;4.86;100.00;97647.84;5013888;28;20167;-77
2023/01/09 00:22:41;;;;;;;22.60;11.35;;;;;;;4.74;100.00;97656.25;4997582;28;20481;-76
2023/01/09 00:25:08;;;;;;;21.98;11.15;;;;;;;4.49;100.00;97663.34;5013914;28;20037;-76
2023/01/09 00:27:34;;;;;;;23.00;9.38;;;;;;;4.25;100.00;97651.00;5014095;28;20028;-76
2023/01/09 00:29:59;;;;;;;24.13;11.07;;;;;;;4.02;100.00;97645.66;5013731;28;20034;-76
2023/01/09 00:32:26;;;;;;;26.05;13.68;;;;;;;4.29;100.00;97653.50;4997079;28;20424;-77
2023/01/09 00:34:52;;;;;;;22.58;11.35;;;;;;;4.38;100.00;97657.59;4994973;28;20026;-77
2023/01/09 00:37:17;;;;;;;18.58;9.77;;;;;;;4.22;100.00;97641.38;4997285;28;20033;-76
2023/01/09 00:39:43;;;;;;;20.23;10.13;;;;;;;4.11;100.00;97651.50;5013580;28;20044;-76
2023/01/09 00:42:18;;;;;;;28.60;11.68;;;;;;;3.93;100.00;97657.44;5013673;28;20140;-76
2023/01/09 00:44:53;;;;;;;19.10;9.95;;;;;;;3.97;100.00;97644.97;4985804;28;20033;-76
2023/01/09 00:47:26;;;;;;;28.25;11.48;;;;;;;3.90;100.00;97660.19;5013512;28;20033;-76
2023/01/09 00:49:52;;;;;;;25.30;12.30;;;;;;;3.74;100.00;97656.31;4992600;28;20516;-75
2023/01/09 00:52:20;;;;;;;30.23;12.02;;;;;;;3.62;100.00;97657.59;5013647;28;20080;-76
2023/01/09 00:54:45;;;;;;;24.95;11.88;;;;;;;3.48;100.00;97657.16;5013677;28;20033;-76
2023/01/09 00:57:12;;;;;;;26.35;12.98;;;;;;;3.34;100.00;97659.38;5013308;28;20034;-77
2023/01/09 00:59:38;;;;;;;30.42;12.23;;;;;;;3.15;100.00;97659.09;4997133;28;20087;-76
2023/01/09 01:02:04;;;;;;;26.67;12.85;;;;;;;3.11;100.00;97662.72;5014106;28;20037;-76
2023/01/09 01:09:57;;;;;;;25.63;12.20;;;;;;;3.12;100.00;97645.97;5011356;28;20033;-77
2023/01/09 01:12:23;;;;;;;24.55;11.02;;;;;;;2.90;100.00;97641.38;5013787;28;20034;-76
2023/01/09 01:14:48;;;;;;;24.35;12.23;;;;;;;3.25;100.00;97670.25;4996724;28;20057;-76
2023/01/09 01:17:14;;;;;;;21.05;10.88;;;;;;;3.54;100.00;97672.81;5030706;28;20032;-75
2023/01/09 01:19:39;;;;;;;15.48;7.78;;;;;;;3.97;100.00;97676.72;5030752;28;20025;-76
2023/01/09 01:22:05;;;;;;;26.38;11.10;;;;;;;4.38;100.00;97670.84;5013495;28;20059;-77
2023/01/09 01:24:31;;;;;;;32.40;15.32;;;;;;;4.95;100.00;97665.22;5013365;28;20040;-77
2023/01/09 01:27:02;;;;;;;33.28;14.10;;;;;;;5.27;100.00;97645.38;4996903;28;20057;-78
2023/01/09 01:29:27;;;;;;;25.98;13.68;;;;;;;5.57;100.00;97632.72;5014109;28;20107;-76
2023/01/09 01:31:53;;;;;;;33.25;13.73;;;;;;;5.70;100.00;97626.81;4996516;28;20088;-77
2023/01/09 01:34:19;;;;;;;9.68;5.68;;;;;;;5.87;100.00;97599.63;5013278;28;20029;-76
2023/01/09 01:36:44;;;;;;;19.25;8.27;;;;;;;5.66;100.00;97595.19;5008350;28;20034;-77
2023/01/09 01:39:10;;;;;;;24.23;11.02;;;;;;;5.36;100.00;97591.97;5011973;28;20050;-76
2023/01/09 01:41:36;;;;;;;21.48;11.07;;;;;;;5.14;100.00;97583.16;4996793;28;20025;-76
2023/01/09 01:44:10;;;;;;;21.63;9.93;;;;;;;4.86;100.00;97580.75;5016840;28;20575;-77
2023/01/09 01:46:41;;;;;;;19.70;9.10;;;;;;;4.56;100.00;97582.78;5017201;28;20073;-77
2023/01/09 01:49:13;;;;;;;26.88;12.80;;;;;;;4.34;100.00;97587.13;5010228;28;20039;-78
2023/01/09 01:52:07;;;;;;;24.45;11.27;;;;;;;4.09;100.00;97587.16;4997423;28;20105;-77
2023/01/09 01:54:33;;;;;;;25.15;11.40;;;;;;;3.96;100.00;97588.53;4998563;28;20523;-77
2023/01/09 01:57:02;;;;;;;26.05;12.43;;;;;;;4.10;100.00;97593.31;5000186;28;20022;-77
2023/01/09 01:59:30;;;;;;;24.33;11.73;;;;;;;4.23;100.00;97594.63;5016632;28;20033;-77
2023/01/09 02:01:58;;;;;;;23.33;11.68;;;;;;;4.38;100.00;97599.34;5016264;28;20057;-76
2023/01/09 02:04:24;;;;;;;22.02;11.15;;;;;;;4.75;100.00;97594.41;5000232;28;20033;-77
2023/01/09 02:06:51;;;;;;;25.95;11.27;;;;;;;5.06;100.00;97587.91;5014913;28;20067;-77
2023/01/09 02:09:19;;;;;;;24.80;10.63;;;;;;;5.31;100.00;97578.06;5016645;28;20021;-77
2023/01/09 02:11:45;;;;;;;23.20;11.52;;;;;;;5.53;100.00;97570.94;5000635;28;20033;-77
2023/01/09 02:14:11;;;;;;;15.02;6.90;;;;;;;5.87;100.00;97558.03;4998886;28;20473;-76
2023/01/09 02:16:55;;;;;;;20.92;11.55;;;;;;;5.96;100.00;97552.31;5016256;28;20029;-75
2023/01/09 02:19:46;;;;;;;17.27;9.98;;;;;;;5.99;100.00;97552.19;5016099;28;20124;-76
2023/01/09 02:22:40;;;;;;;20.10;9.68;;;;;;;6.05;100.00;97540.41;4996272;28;20037;-77
2023/01/09 02:25:31;;;;;;;15.57;8.63;;;;;;;6.03;100.00;97544.06;5008569;28;20033;-77
2023/01/09 02:28:16;;;;;;;14.18;7.20;;;;;;;5.95;100.00;97539.97;4999276;28;20021;-76
2023/01/09 02:30:43;;;;;;;27.73;11.57;;;;;;;5.95;100.00;97532.00;5016047;28;20036;-77
2023/01/09 02:33:28;;;;;;;16.73;8.50;;;;;;;5.95;100.00;97541.75;5015849;28;20039;-76
2023/01/09 02:36:15;;;;;;;20.60;11.23;;;;;;;6.00;100.00;97542.38;5015946;28;20100;-78
2023/01/09 02:38:48;;;;;;;21.00;12.25;;;;;;;6.04;100.00;97544.00;5015612;28;20037;-77
2023/01/09 02:41:23;;;;;;;22.23;11.05;;;;;;;5.96;100.00;97547.00;4999055;28;20516;-77
2023/01/09 02:44:30;;;;;;;24.35;11.35;;;;;;;5.99;100.00;97535.38;5015739;28;20026;-76
2023/01/09 02:47:19;;;;;;;18.48;8.80;;;;;;;6.00;100.00;97553.88;5015926;28;20534;-76
2023/01/09 02:49:54;;;;;;;22.05;11.45;;;;;;;5.96;100.00;97552.31;4994179;28;20044;-75
2023/01/09 02:52:29;;;;;;;28.02;13.55;;;;;;;5.90;100.00;97557.03;5015844;28;20064;-76
2023/01/09 02:55:32;;;;;;;22.70;10.55;;;;;;;5.81;100.00;97560.91;5032449;28;20029;-76
2023/01/09 02:58:10;;;;;;;24.15;10.80;;;;;;;5.82;100.00;97554.66;5032800;28;20496;-77
2023/01/09 03:00:36;;;;;;;18.75;10.00;;;;;;;5.86;100.00;97561.59;5015627;28;20401;-77
2023/01/09 03:03:55;;;;;;;18.27;9.45;;;;;;;5.98;100.00;97547.78;5032978;28;20035;-77
2023/01/09 03:06:35;;;;;;;25.65;12.73;;;;;;;5.95;100.00;97541.75;4926195;28;20026;-77
2023/01/09 03:09:09;;;;;;;16.58;8.77;;;;;;;5.89;100.00;97531.41;5033247;28;20026;-77
2023/01/09 03:11:39;;;;;;;22.30;11.05;;;;;;;5.84;100.00;97542.19;4992740;28;20500;-77
2023/01/09 03:14:11;;;;;;;11.77;6.30;;;;;;;5.91;100.00;97543.66;5014924;28;20477;-76
2023/01/09 03:16:37;;;;;;;12.00;7.07;;;;;;;5.90;100.00;97536.66;4998932;28;20461;-75
2023/01/09 03:19:05;;;;;;;22.65;11.23;;;;;;;5.95;100.00;97536.44;5013424;28;20108;-79
2023/01/09 03:21:32;;;;;;;22.38;11.05;;;;;;;5.93;100.00;97535.66;4991305;28;20029;-76
2023/01/09 03:24:00;;;;;;;23.58;8.98;;;;;;;5.96;100.00;97530.22;5014874;28;20057;-76
2023/01/09 03:26:28;;;;;;;23.25;11.07;;;;;;;5.90;100.00;97530.47;4993137;28;20025;-77
2023/01/09 03:28:54;;;;;;;15.88;7.90;;;;;;;5.94;100.00;97537.34;5014827;28;20465;-77
2023/01/09 03:31:20;;;;;;;22.75;10.52;;;;;;;5.93;100.00;97528.56;5014792;28;20030;-76
2023/01/09 03:33:46;;;;;;;16.77;8.55;;;;;;;5.99;100.00;97528.28;4998327;28;20481;-77
2023/01/09 03:36:12;;;;;;;19.85;10.85;;;;;;;5.96;100.00;97525.75;5014427;28;20033;-76
2023/01/09 03:38:38;;;;;;;23.27;11.18;;;;;;;5.93;100.00;97525.03;5014870;28;20036;-76
2023/01/09 03:41:04;;;;;;;28.80;12.13;;;;;;;5.85;100.00;97521.78;5014649;28;20026;-77
2023/01/09 03:43:29;;;;;;;19.80;11.25;;;;;;;5.75;100.00;97516.03;4992793;28;20401;-77
2023/01/09 03:45:55;;;;;;;19.83;11.48;;;;;;;5.83;100.00;97528.97;5014618;28;20030;-77
2023/01/09 03:48:21;;;;;;;17.40;8.85;;;;;;;6.01;100.00;97533.50;4997814;28;20025;-77
2023/01/09 03:50:48;;;;;;;20.95;10.65;;;;;;;6.14;100.00;97540.00;4998073;28;20033;-77
2023/01/09 03:53:15;;;;;;;21.85;9.40;;;;;;;5.99;100.00;97557.50;5014147;28;20025;-77
2023/01/09 03:55:48;;;;;;;24.05;10.38;;;;;;;6.06;100.00;97535.97;4997972;28;20484;-76
2023/01/09 03:58:14;;;;;;;19.70;9.75;;;;;;;6.00;100.00;97530.00;4997867;28;20029;-77
2023/01/09 04:00:41;;;;;;;20.92;11.75;;;;;;;5.97;100.00;97543.41;5014069;28;20068;-77
2023/01/09 04:03:08;;;;;;;13.90;6.78;;;;;;;5.94;100.00;97524.94;5014427;28;20033;-77
2023/01/09 04:05:34;;;;;;;10.82;5.32;;;;;;;5.98;100.00;97537.16;4997020;28;20041;-77
2023/01/09 04:08:00;;;;;;;19.83;10.00;;;;;;;5.89;100.00;97515.47;4997862;28;20570;-77
2023/01/09 04:10:25;;;;;;;19.13;11.10;;;;;;;5.84;100.00;97530.72;5013942;28;20017;-76
2023/01/09 04:12:51;;;;;;;20.85;9.63;;;;;;;5.83;100.00;97532.50;4997606;28;20025;-77
2023/01/09 04:15:16;;;;;;;16.25;6.38;;;;;;;5.76;100.00;97531.03;4997220;28;20037;-77
2023/01/09 04:17:42;;;;;;;17.08;7.45;;;;;;;5.88;100.00;97530.53;4994243;28;20022;-77
2023/01/09 04:20:08;;;;;;;18.85;8.95;;;;;;;5.83;100.00;97529.84;4995616;28;20029;-77
2023/01/09 04:22:34;;;;;;;16.60;6.93;;;;;;;5.78;100.00;97521.19;4997536;28;20106;-77
2023/01/09 04:24:59;;;;;;;14.35;7.60;;;;;;;5.82;100.00;97528.09;4990573;28;20060;-77
2023/01/09 04:27:25;;;;;;;10.18;5.90;;;;;;;5.76;100.00;97527.50;4992867;28;20036;-76
2023/01/09 04:29:51;;;;;;;11.25;5.47;;;;;;;5.72;100.00;97537.38;4997233;28;20532;-76
2023/01/09 04:32:16;;;;;;;21.92;11.63;;;;;;;5.60;100.00;97545.88;5010638;28;20034;-77
2023/01/09 04:34:42;;;;;;;24.45;11.85;;;;;;;5.57;100.00;97556.59;4987674;28;20123;-76
2023/01/09 04:37:07;;;;;;;22.35;11.00;;;;;;;5.46;100.00;97543.81;4990160;28;20507;-76
2023/01/09 04:39:33;;;;;;;24.58;12.80;;;;;;;5.43;100.00;97548.38;4996964;28;20087;-77
2023/01/09 04:41:58;;;;;;;18.17;8.73;;;;;;;5.44;100.00;97563.38;5013355;28;20037;-76
2023/01/09 04:44:28;;;;;;;22.80;11.73;;;;;;;5.45;100.00;97554.47;5013410;28;20060;-77
2023/01/09 04:46:55;;;;;;;23.50;11.52;;;;;;;5.54;100.00;97559.38;4997472;28;20063;-75
2023/01/09 04:49:21;;;;;;;15.45;8.18;;;;;;;5.70;100.00;97568.44;4996509;28;20077;-76
2023/01/09 04:51:47;;;;;;;20.55;7.75;;;;;;;5.71;100.00;97554.25;4996817;28;20545;-77
2023/01/09 04:54:13;;;;;;;17.48;9.18;;;;;;;5.80;100.00;97566.25;5013465;28;20029;-77
2023/01/09 04:56:38;;;;;;;13.73;6.50;;;;;;;5.83;100.00;97556.38;4996546;28;20358;-77
2023/01/09 04:59:05;;;;;;;13.95;7.82;;;;;;;5.88;100.00;97562.38;4996582;28;20489;-77
2023/01/09 05:01:30;;;;;;;19.88;9.63;;;;;;;5.83;100.00;97535.16;5012928;28;20091;-76
2023/01/09 05:03:56;;;;;;;25.45;10.73;;;;;;;5.88;100.00;97541.16;5013259;28;20025;-77
2023/01/09 05:06:22;;;;;;;12.60;7.57;;;;;;;5.81;100.00;97525.53;4996558;28;20118;-76
2023/01/09 05:08:47;;;;;;;18.67;9.50;;;;;;;5.81;100.00;97526.41;5013123;28;20033;-75
2023/01/09 05:11:13;;;;;;;14.27;7.03;;;;;;;5.81;100.00;97525.53;5013052;28;20104;-75
2023/01/09 05:13:38;;;;;;;15.65;7.60;;;;;;;5.85;100.00;97528.00;4996681;28;20405;-75
2023/01/09 05:16:04;;;;;;;29.25;11.38;;;;;;;5.84;100.00;97536.88;4996530;28;20033;-76
2023/01/09 05:18:30;;;;;;;21.90;9.88;;;;;;;5.79;100.00;97530.91;5015917;28;20097;-77
2023/01/09 05:20:56;;;;;;;18.27;8.40;;;;;;;5.79;100.00;97525.59;5000880;28;20086;-77
2023/01/09 05:23:21;;;;;;;21.33;11.95;;;;;;;5.73;100.00;97532.94;5016879;28;20037;-76
2023/01/09 05:25:47;;;;;;;18.35;8.82;;;;;;;5.74;100.00;97524.94;5000600;28;20041;-76
2023/01/09 05:28:12;;;;;;;26.42;11.77;;;;;;;5.79;100.00;97537.97;5001828;28;20029;-76
2023/01/09 05:30:38;;;;;;;22.25;11.07;;;;;;;5.79;100.00;97532.69;5014543;28;20060;-75
2023/01/09 05:33:04;;;;;;;12.55;7.72;;;;;;;5.81;100.00;97526.41;4998330;28;20041;-76
2023/01/09 05:35:29;;;;;;;19.00;7.88;;;;;;;5.82;100.00;97533.41;5015357;28;20033;-77
2023/01/09 05:37:55;;;;;;;21.48;10.30;;;;;;;5.80;100.00;97527.31;5014732;28;20492;-76
2023/01/09 05:40:21;;;;;;;19.98;9.95;;;;;;;5.84;100.00;97528.91;4998160;28;20037;-76
2023/01/09 05:42:47;;;;;;;17.35;9.35;;;;;;;5.81;100.00;97523.75;5014690;28;20394;-76
2023/01/09 05:45:12;;;;;;;20.48;8.77;;;;;;;5.82;100.00;97517.50;5014525;28;20110;-77
2023/01/09 05:47:38;;;;;;;17.17;8.70;;;;;;;5.86;100.00;97516.47;5014228;28;20040;-77
2023/01/09 05:50:04;;;;;;;25.58;9.25;;;;;;;5.85;100.00;97506.78;5000214;28;20428;-77
2023/01/09 05:52:29;;;;;;;14.70;6.38;;;;;;;5.88;100.00;97545.59;4999995;28;20473;-77
2023/01/09 05:54:55;;;;;;;12.38;7.05;;;;;;;5.90;100.00;97530.47;5016448;28;20033;-77
2023/01/09 05:57:21;;;;;;;12.90;5.85;;;;;;;5.89;100.00;97528.75;5000142;28;20079;-77
2023/01/09 05:59:46;;;;;;;15.32;8.48;;;;;;;5.87;100.00;97533.25;4999667;28;20025;-77
2023/01/09 06:02:12;;;;;;;19.77;8.40;;;;;;;5.82;100.00;97519.28;5016865;28;20033;-78
2023/01/09 06:04:38;;;;;;;24.67;10.15;;;;;;;5.79;100.00;97512.31;5016250;28;20507;-76
2023/01/09 06:07:04;;;;;;;25.05;11.43;;;;;;;5.81;100.00;97513.13;5016123;28;20035;-76
2023/01/09 06:09:30;;;;;;;49.78;20.50;;;;;;;5.85;100.00;97517.38;5016067;28;20416;-76
2023/01/09 06:11:56;;;;;;;36.55;14.90;;;;;;;5.81;100.00;97507.81;5016158;28;20083;-76
2023/01/09 06:14:22;;;;;;;23.85;12.07;;;;;;;5.93;100.00;97520.59;5033910;28;20041;-77
2023/01/09 06:16:47;;;;;;;13.60;6.95;;;;;;;5.89;100.00;97516.34;5003034;28;20112;-78
2023/01/09 06:19:13;;;;;;;26.30;13.45;;;;;;;5.90;100.00;97504.81;5016203;28;20141;-77
2023/01/09 06:21:38;;;;;;;40.67;15.00;;;;;;;5.92;100.00;97505.59;4999539;28;20394;-75
2023/01/09 06:24:04;;;;;;;76.45;28.83;;;;;;;5.96;100.00;97515.16;5016018;28;20112;-78
2023/01/09 06:26:30;;;;;;;21.00;10.73;;;;;;;5.96;100.00;97509.84;5015772;28;20518;-77
2023/01/09 06:28:56;;;;;;;21.38;8.88;;;;;;;6.06;100.00;97509.44;4998314;28;20029;-77
2023/01/09 06:31:22;;;;;;;27.75;12.82;;;;;;;6.11;100.00;97499.44;5015748;28;20136;-76
2023/01/09 06:33:48;;;;;;;39.13;16.60;;;;;;;6.12;100.00;97506.50;5015640;28;20404;-75
2023/01/09 06:36:14;;;;;;;23.70;10.52;;;;;;;6.18;100.00;97507.09;5015633;28;20033;-75
2023/01/09 06:38:39;;;;;;;20.23;8.60;;;;;;;6.19;100.00;97513.22;5015793;28;20038;-76
2023/01/09 06:41:06;;;;;;;17.60;8.45;;;;;;;6.23;100.00;97497.09;4999030;28;20118;-76
2023/01/09 06:43:31;;;;;;;20.83;9.68;;;;;;;6.27;100.00;97509.31;4999262;28;20041;-75
2023/01/09 06:45:57;;;;;;;56.22;23.25;;;;;;;6.35;100.00;97485.91;5015457;28;20032;-76
2023/01/09 06:48:23;;;;;;;20.80;9.05;;;;;;;7.01;100.00;97511.09;4999213;28;20036;-76
2023/01/09 06:50:53;;;;;;;20.17;7.55;;;;;;;7.89;100.00;97517.28;4998602;28;20041;-76
2023/01/09 06:53:18;;;;;;;14.32;7.28;;;;;;;8.27;100.00;97487.78;5015697;28;20025;-76
2023/01/09 06:55:44;;;;;;;20.35;9.40;;;;;;;8.75;99.76;97478.91;4998926;28;20032;-76
2023/01/09 06:58:10;;;;;;;18.90;8.25;;;;;;;9.07;94.81;97469.97;5015240;28;20114;-76
2023/01/09 07:00:36;;;;;;;16.83;8.15;;;;;;;9.17;92.46;97455.13;4999071;28;20113;-76
2023/01/09 07:03:02;;;;;;;20.02;8.68;;;;;;;9.64;89.87;97447.00;5015000;28;20028;-77
2023/01/09 07:05:28;;;;;;;23.15;11.55;;;;;;;9.73;87.91;97417.06;5015145;28;20096;-76
2023/01/09 07:07:53;;;;;;;17.75;9.13;;;;;;;9.90;85.88;97408.06;4998641;28;20029;-77
2023/01/09 07:10:19;;;;;;;17.08;9.93;;;;;;;9.72;85.35;97394.84;4995433;28;20090;-77
2023/01/09 07:12:44;;;;;;;11.57;5.97;;;;;;;9.75;85.82;97400.00;5013384;28;20405;-77
2023/01/09 07:15:10;;;;;;;20.23;6.80;;;;;;;10.11;83.21;97409.38;5014860;28;20111;-76
2023/01/09 07:17:36;;;;;;;19.63;11.02;;;;;;;10.36;81.60;97406.94;5014774;28;20400;-77
2023/01/09 07:20:02;;;;;;;21.88;12.10;;;;;;;10.76;77.65;97406.09;5014597;28;20026;-77
2023/01/09 07:22:27;;;;;;;16.92;9.23;;;;;;;11.05;75.46;97396.13;5015216;28;20112;-77
2023/01/09 07:24:53;;;;;;;18.85;9.68;;;;;;;10.84;76.21;97392.22;5014983;28;20061;-77
2023/01/09 07:27:19;;;;;;;19.98;9.70;;;;;;;10.53;77.18;97379.09;4998195;28;20453;-76
2023/01/09 07:29:44;;;;;;;19.05;9.52;;;;;;;10.38;78.23;97399.66;5014605;28;20477;-76
2023/01/09 07:32:10;;;;;;;18.95;8.35;;;;;;;10.19;78.99;97391.94;4997859;28;20396;-76
2023/01/09 07:34:35;;;;;;;27.88;8.50;;;;;;;10.31;79.21;97403.66;5014710;28;20041;-76
2023/01/09 07:37:01;;;;;;;25.48;10.95;;;;;;;10.30;79.78;97383.25;4998032;28;20432;-76
2023/01/09 07:39:26;;;;;;;15.77;8.05;;;;;;;10.92;75.82;97410.44;4998078;28;20034;-77
2023/01/09 07:41:52;;;;;;;16.50;8.50;;;;;;;10.76;75.38;97383.84;4997978;28;20021;-76
2023/01/09 07:44:17;;;;;;;17.77;9.05;;;;;;;10.41;77.07;97353.16;4998166;28;20067;-77
2023/01/09 07:46:43;;;;;;;16.45;8.73;;;;;;;10.65;76.04;97395.22;5014345;28;20049;-76
2023/01/09 07:49:08;;;;;;;30.23;12.25;;;;;;;10.91;75.14;97382.81;5013782;28;20452;-78
2023/01/09 07:51:34;;;;;;;9.05;4.82;;;;;;;10.86;73.14;97376.91;5014233;28;20032;-76
2023/01/09 07:54:00;;;;;;;23.38;8.43;;;;;;;11.14;73.07;97383.97;4997888;28;20021;-77
2023/01/09 07:56:25;;;;;;;9.10;5.68;;;;;;;10.72;73.80;97387.66;4998060;28;20579;-77
2023/01/09 07:58:51;;;;;;;12.80;6.78;;;;;;;10.61;75.52;97395.53;4998062;28;20057;-76
2023/01/09 08:01:16;;;;;;;12.70;5.50;;;;;;;10.98;72.60;97400.19;4996299;28;20030;-76
2023/01/09 08:03:42;;;;;;;15.75;7.35;;;;;;;10.75;74.19;97391.00;5013997;28;20029;-78
2023/01/09 08:06:09;;;;;;;16.73;6.75;;;;;;;10.79;74.40;97391.66;5013687;28;20032;-75
2023/01/09 08:08:34;;;;;;;11.90;6.25;;;;;;;11.10;71.59;97391.34;4997519;28;20476;-77
2023/01/09 08:11:00;;;;;;;20.85;7.05;;;;;;;11.07;71.65;97362.13;5013869;28;20021;-77
2023/01/09 08:13:25;;;;;;;18.75;7.88;;;;;;;11.13;71.36;97385.81;4997396;28;20101;-77
2023/01/09 08:15:51;;;;;;;10.68;4.95;;;;;;;11.40;69.11;97381.25;5014337;28;20025;-77
2023/01/09 08:18:16;;;;;;;20.52;8.68;;;;;;;11.18;71.10;97374.78;4997174;28;20125;-77
2023/01/09 08:20:42;;;;;;;13.80;6.60;;;;;;;11.40;69.93;97380.41;4997571;28;20116;-77
2023/01/09 08:23:07;;;;;;;13.45;6.95;;;;;;;11.84;67.57;97374.69;4997574;28;20064;-78
2023/01/09 08:25:33;;;;;;;19.90;10.00;;;;;;;12.06;66.42;97380.25;4997488;28;20449;-77
2023/01/09 08:27:58;;;;;;;6.70;3.45;;;;;;;11.56;66.63;97381.06;5014452;28;20068;-77
2023/01/09 08:30:24;;;;;;;12.95;7.30;;;;;;;11.48;67.93;97367.34;4997338;28;20548;-77
2023/01/09 08:32:52;;;;;;;16.85;6.60;;;;;;;11.29;69.22;97373.06;4997039;28;20455;-76
2023/01/09 08:35:17;;;;;;;15.88;8.15;;;;;;;11.54;69.33;97382.97;5013195;28;20033;-78
2023/01/09 08:37:44;;;;;;;10.70;5.20;;;;;;;11.52;67.88;97379.56;5013406;28;20036;-77
2023/01/09 08:40:11;;;;;;;17.35;6.13;;;;;;;11.41;69.34;97391.00;4996922;28;20064;-77
2023/01/09 08:48:04;;;;;;;13.13;6.50;;;;;;;11.31;69.74;97379.22;5016193;28;20044;-77
2023/01/09 08:50:30;;;;;;;13.15;7.70;;;;;;;11.25;69.54;97368.91;5013027;28;20128;-77
2023/01/09 08:52:55;;;;;;;26.15;10.77;;;;;;;11.27;71.24;97388.41;5012875;28;20097;-77
2023/01/09 08:55:21;;;;;;;13.43;6.35;;;;;;;11.22;69.29;97373.63;5013049;28;20121;-78
2023/01/09 08:57:51;;;;;;;15.13;7.78;;;;;;;11.60;69.21;97403.13;5013280;28;20109;-77
2023/01/09 09:00:18;;;;;;;21.13;8.90;;;;;;;11.81;67.33;97397.19;4996496;28;20760;-78
2023/01/09 09:02:43;;;;;;;17.35;7.80;;;;;;;12.07;65.30;97381.09;4996869;28;20068;-77
2023/01/09 09:05:09;;;;;;;9.57;5.10;;;;;;;11.81;66.15;97394.50;4996737;28;20037;-77
2023/01/09 09:07:35;;;;;;;12.85;7.32;;;;;;;11.96;65.86;97387.25;4996708;28;20064;-77
2023/01/09 09:10:00;;;;;;;16.40;7.38;;;;;;;11.71;65.37;97376.50;5012897;28;20445;-77
2023/01/09 09:12:27;;;;;;;17.90;6.93;;;;;;;10.94;68.44;97371.06;4996628;28;20436;-76
2023/01/09 09:17:36;;;;;;;19.25;6.50;;;;;;;10.78;71.50;97384.59;5013328;28;20036;-76
2023/01/09 09:20:02;;;;;;;13.05;6.65;;;;;;;11.11;69.53;97377.00;4996666;28;20021;-75
2023/01/09 09:22:27;;;;;;;18.23;5.43;;;;;;;10.78;71.50;97379.22;5012888;28;20083;-77
2023/01/09 09:24:53;;;;;;;11.25;5.97;;;;;;;11.55;67.97;97371.31;4996493;28;20033;-77
2023/01/09 09:27:18;;;;;;;17.50;9.38;;;;;;;11.66;67.19;97370.59;5012602;28;20095;-77
2023/01/09 09:29:44;;;;;;;12.25;7.10;;;;;;;12.17;64.17;97364.28;5012535;28;20432;-77
2023/01/09 09:32:10;;;;;;;12.35;6.68;;;;;;;12.43;62.28;97373.13;4996390;28;20107;-77
2023/01/09 09:34:36;;;;;;;18.63;7.30;;;;;;;12.80;60.18;97333.72;4996431;28;20473;-78
2023/01/09 09:37:01;;;;;;;13.27;7.13;;;;;;;12.52;60.66;97342.09;4996356;28;20021;-77
2023/01/09 09:39:27;;;;;;;11.00;5.90;;;;;;;12.07;62.37;97335.53;4996396;28;20025;-78
2023/01/09 09:45:11;;;;;;;13.98;7.00;;;;;;;12.55;60.86;97333.84;5011602;28;20525;-76
2023/01/09 09:48:15;;;;;;;16.35;7.88;;;;;;;13.13;58.78;97327.69;4996241;28;20044;-76
2023/01/09 09:51:25;;;;;;;15.68;7.80;;;;;;;13.34;56.45;97305.44;4980302;28;20049;-77
2023/01/09 09:54:01;;;;;;;11.90;6.13;;;;;;;13.30;56.52;97301.25;4986138;28;20094;-78
2023/01/09 09:56:29;;;;;;;17.00;8.25;;;;;;;14.15;54.79;97324.09;5014055;28;20040;-78
2023/01/09 09:59:10;;;;;;;10.90;5.60;;;;;;;13.88;54.02;97281.44;5012455;28;20025;-78
2023/01/09 10:01:39;;;;;;;11.43;6.10;;;;;;;13.71;54.33;97255.03;5013534;28;20026;-76
2023/01/09 10:04:10;;;;;;;12.23;6.07;;;;;;;14.41;52.21;97271.78;4999044;28;20037;-77
2023/01/09 10:06:45;;;;;;;12.80;6.57;;;;;;;14.81;51.07;97271.16;4999747;28;20061;-77
2023/01/09 10:09:40;;;;;;;13.43;7.43;;;;;;;14.79;50.93;97263.25;4995588;28;20578;-77
2023/01/09 10:12:21;;;;;;;12.13;6.63;;;;;;;15.22;50.11;97243.44;5016141;28;20033;-78
2023/01/09 10:14:46;;;;;;;12.98;7.65;;;;;;;15.91;48.52;97233.78;5015586;28;20481;-78
2023/01/09 10:17:30;;;;;;;11.13;6.25;;;;;;;16.62;46.36;97238.16;4999706;28;20039;-79
2023/01/09 10:20:04;;;;;;;11.20;7.00;;;;;;;16.43;46.02;97221.88;5015692;28;20116;-77
2023/01/09 10:22:35;;;;;;;12.57;7.28;;;;;;;16.83;45.77;97224.56;4999841;28;20045;-78
2023/01/09 10:25:27;;;;;;;10.68;5.68;;;;;;;16.62;45.38;97185.00;5033752;28;20033;-79
2023/01/09 10:27:58;;;;;;;12.02;7.18;;;;;;;16.21;46.64;97204.91;5013713;28;20064;-79
2023/01/09 10:30:33;;;;;;;14.37;7.43;;;;;;;16.90;45.28;97204.06;5015905;28;20117;-78
2023/01/09 10:33:10;;;;;;;21.60;8.48;;;;;;;17.26;44.65;97187.09;5015580;28;20030;-79
2023/01/09 10:35:39;;;;;;;11.73;6.15;;;;;;;17.10;44.77;97167.94;5033470;28;20029;-78
2023/01/09 10:38:05;;;;;;;12.10;5.97;;;;;;;16.95;44.49;97153.16;5015687;28;20608;-78
2023/01/09 10:40:44;;;;;;;10.88;5.15;;;;;;;16.39;45.95;97137.63;5015888;28;20108;-78
2023/01/09 10:43:19;;;;;;;14.27;6.70;;;;;;;16.28;46.60;97145.84;5015586;28;20025;-78
2023/01/09 10:45:52;;;;;;;14.57;8.30;;;;;;;16.79;46.02;97151.03;5015905;28;20111;-78
2023/01/09 10:48:30;;;;;;;19.15;8.70;;;;;;;17.19;44.75;97156.25;5015935;28;20097;-78
2023/01/09 10:50:56;;;;;;;13.38;7.50;;;;;;;16.85;44.94;97139.66;5032975;28;20118;-79
2023/01/09 10:53:32;;;;;;;11.52;7.10;;;;;;;16.84;45.46;97137.09;5015282;28;20536;-77
2023/01/09 10:56:17;;;;;;;11.98;6.85;;;;;;;17.04;44.71;97136.09;5012685;28;20386;-77
2023/01/09 10:58:43;;;;;;;18.38;7.95;;;;;;;17.03;44.43;97108.19;5015805;28;20025;-79
2023/01/09 11:01:42;;;;;;;26.80;14.25;;;;;;;17.32;43.74;97113.50;4998810;28;20500;-78
2023/01/09 11:04:29;;;;;;;21.52;12.25;;;;;;;16.04;45.95;97091.41;4953835;28;20072;-77
2023/01/09 11:07:14;;;;;;;28.88;13.65;;;;;;;15.95;46.81;97086.84;4998686;28;20032;-79
2023/01/09 11:10:03;;;;;;;16.75;9.48;;;;;;;16.03;46.46;97087.00;5021746;28;20108;-78
2023/01/09 11:12:30;;;;;;;14.63;8.32;;;;;;;16.13;46.35;97093.28;4991326;28;20026;-77
2023/01/09 11:15:18;;;;;;;13.10;6.88;;;;;;;16.01;45.97;97068.28;4997987;28;20022;-78
2023/01/09 11:17:44;;;;;;;13.48;6.70;;;;;;;15.90;46.07;97041.44;5032436;28;20099;-78
2023/01/09 11:20:30;;;;;;;13.13;8.40;;;;;;;16.40;45.61;97060.19;4998324;28;20454;-76
2023/01/09 11:22:57;;;;;;;11.65;6.80;;;;;;;16.31;45.62;97061.03;5014233;28;20045;-77
2023/01/09 11:25:25;;;;;;;16.45;8.23;;;;;;;15.95;46.46;97057.19;4998558;28;20107;-78
2023/01/09 11:28:05;;;;;;;13.52;6.95;;;;;;;16.70;45.43;97062.75;4998348;28;20044;-76
2023/01/09 11:30:35;;;;;;;14.00;7.05;;;;;;;17.71;43.03;97061.00;5010335;28;20025;-76
2023/01/09 11:33:13;;;;;;;9.10;4.88;;;;;;;18.31;41.50;97042.34;4998156;28;20045;-78
2023/01/09 11:35:58;;;;;;;10.45;6.10;;;;;;;18.77;41.41;97058.34;4998217;28;20400;-78
2023/01/09 11:38:24;;;;;;;12.60;6.05;;;;;;;19.98;39.26;97071.78;4998154;28;20098;-79
2023/01/09 11:41:15;;;;;;;9.82;6.07;;;;;;;20.80;37.71;97041.84;5015388;28;20025;-76
2023/01/09 11:43:44;;;;;;;12.40;6.68;;;;;;;20.30;37.70;97028.41;4998379;28;20120;-78
2023/01/09 11:46:29;;;;;;;9.95;5.60;;;;;;;19.36;39.07;96988.88;4997739;28;20436;-77
2023/01/09 11:48:57;;;;;;;11.95;6.78;;;;;;;17.92;41.31;96976.84;4990947;28;20449;-77